sensor_id;sensor_type;location;lat;lon;timestamp;temperature;humidity
13806;DHT22;6974;53.606;9.872;2022-09-30T00:02:16;11.10;99.90
13806;DHT22;6974;53.606;9.872;2022-09-30T00:04:44;11.10;99.90
13806;DHT22;6974;53.606;9.872;2022-09-30T00:07:11;11.00;99.90
13806;DHT22;6974;53.606;9.872;2022-09-30T00:09:38;11.00;99.90
13806;DHT22;6974;53.606;9.872;2022-09-30T00:12:04;11.00;99.90
13806;DHT22;6974;53.606;9.872;2022-09-30T00:14:31;11.00;99.90
13806;DHT22;6974;53.606;9.872;2022-09-30T00:16:58;11.00;99.90
13806;DHT22;6974;53.606;9.872;2022-09-30T00:19:26;11.00;99.90
13806;DHT22;6974;53.606;9.872;2022-09-30T00:21:54;11.00;99.90
13806;DHT22;6974;53.606;9.872;2022-09-30T00:24:21;11.00;99.90
13806;DHT22;6974;53.606;9.872;2022-09-30T00:26:47;10.90;99.90
13806;DHT22;6974;53.606;9.872;2022-09-30T00:29:14;10.90;99.90
13806;DHT22;6974;53.606;9.872;2022-09-30T00:31:41;10.90;99.90
13806;DHT22;6974;53.606;9.872;2022-09-30T00:34:08;10.90;99.90
13806;DHT22;6974;53.606;9.872;2022-09-30T00:36:39;10.80;99.90
13806;DHT22;6974;53.606;9.872;2022-09-30T00:39:11;10.80;99.90
13806;DHT22;6974;53.606;9.872;2022-09-30T00:41:39;10.80;99.90
13806;DHT22;6974;53.606;9.872;2022-09-30T00:47:25;10.70;99.90
13806;DHT22;6974;53.606;9.872;2022-09-30T00:49:54;10.70;99.90
13806;DHT22;6974;53.606;9.872;2022-09-30T00:52:23;10.70;99.90
13806;DHT22;6974;53.606;9.872;2022-09-30T00:54:52;10.70;99.90
13806;DHT22;6974;53.606;9.872;2022-09-30T00:59:57;10.70;99.90
13806;DHT22;6974;53.606;9.872;2022-09-30T01:02:24;10.60;99.90
13806;DHT22;6974;53.606;9.872;2022-09-30T01:04:53;10.60;99.90
13806;DHT22;6974;53.606;9.872;2022-09-30T01:07:22;10.60;99.90
13806;DHT22;6974;53.606;9.872;2022-09-30T01:09:54;10.50;99.90
13806;DHT22;6974;53.606;9.872;2022-09-30T01:12:24;10.50;99.90
13806;DHT22;6974;53.606;9.872;2022-09-30T01:14:52;10.50;99.90
13806;DHT22;6974;53.606;9.872;2022-09-30T01:17:27;10.50;99.90
13806;DHT22;6974;53.606;9.872;2022-09-30T01:20:25;10.40;99.90
13806;DHT22;6974;53.606;9.872;2022-09-30T01:23:10;10.40;99.90
13806;DHT22;6974;53.606;9.872;2022-09-30T01:31:57;10.40;99.90
13806;DHT22;6974;53.606;9.872;2022-09-30T01:34:39;10.30;99.90
13806;DHT22;6974;53.606;9.872;2022-09-30T01:37:16;10.30;99.90
13806;DHT22;6974;53.606;9.872;2022-09-30T01:39:50;10.30;99.90
13806;DHT22;6974;53.606;9.872;2022-09-30T01:42:26;10.30;99.90
13806;DHT22;6974;53.606;9.872;2022-09-30T01:45:06;10.20;99.90
13806;DHT22;6974;53.606;9.872;2022-09-30T01:47:41;10.20;99.90
13806;DHT22;6974;53.606;9.872;2022-09-30T01:50:15;10.20;99.90
13806;DHT22;6974;53.606;9.872;2022-09-30T01:52:50;10.20;99.90
13806;DHT22;6974;53.606;9.872;2022-09-30T01:55:22;10.20;99.90
13806;DHT22;6974;53.606;9.872;2022-09-30T01:57:57;10.20;99.90
13806;DHT22;6974;53.606;9.872;2022-09-30T02:00:26;10.20;99.90
13806;DHT22;6974;53.606;9.872;2022-09-30T02:02:58;10.10;99.90
13806;DHT22;6974;53.606;9.872;2022-09-30T02:05:33;10.00;99.90
13806;DHT22;6974;53.606;9.872;2022-09-30T02:08:06;10.00;99.90
13806;DHT22;6974;53.606;9.872;2022-09-30T02:10:41;10.00;99.90
13806;DHT22;6974;53.606;9.872;2022-09-30T02:13:13;10.00;99.90
13806;DHT22;6974;53.606;9.872;2022-09-30T02:15:46;10.00;99.90
13806;DHT22;6974;53.606;9.872;2022-09-30T02:18:19;10.00;99.90
13806;DHT22;6974;53.606;9.872;2022-09-30T02:20:53;10.00;99.90
13806;DHT22;6974;53.606;9.872;2022-09-30T02:23:24;10.00;99.90
13806;DHT22;6974;53.606;9.872;2022-09-30T02:25:57;10.10;99.90
13806;DHT22;6974;53.606;9.872;2022-09-30T02:28:28;10.10;99.90
13806;DHT22;6974;53.606;9.872;2022-09-30T02:30:57;10.20;99.90
13806;DHT22;6974;53.606;9.872;2022-09-30T02:33:30;10.20;99.90
13806;DHT22;6974;53.606;9.872;2022-09-30T02:36:02;10.10;99.90
13806;DHT22;6974;53.606;9.872;2022-09-30T02:38:36;10.10;99.90
13806;DHT22;6974;53.606;9.872;2022-09-30T02:41:08;10.10;99.90
13806;DHT22;6974;53.606;9.872;2022-09-30T02:43:39;10.10;99.90
13806;DHT22;6974;53.606;9.872;2022-09-30T02:46:09;10.10;99.90
13806;DHT22;6974;53.606;9.872;2022-09-30T02:48:45;10.10;99.90
13806;DHT22;6974;53.606;9.872;2022-09-30T02:51:18;10.10;99.90
13806;DHT22;6974;53.606;9.872;2022-09-30T02:53:51;10.10;99.90
13806;DHT22;6974;53.606;9.872;2022-09-30T02:56:27;10.20;99.90
13806;DHT22;6974;53.606;9.872;2022-09-30T02:58:59;10.20;99.90
13806;DHT22;6974;53.606;9.872;2022-09-30T03:01:26;10.20;99.90
13806;DHT22;6974;53.606;9.872;2022-09-30T03:03:58;10.20;99.90
13806;DHT22;6974;53.606;9.872;2022-09-30T03:06:27;10.20;99.90
13806;DHT22;6974;53.606;9.872;2022-09-30T03:08:54;10.20;99.90
13806;DHT22;6974;53.606;9.872;2022-09-30T03:11:24;10.20;99.90
13806;DHT22;6974;53.606;9.872;2022-09-30T03:14:09;10.20;99.90
13806;DHT22;6974;53.606;9.872;2022-09-30T03:17:00;10.20;99.90
13806;DHT22;6974;53.606;9.872;2022-09-30T03:19:45;10.20;99.90
13806;DHT22;6974;53.606;9.872;2022-09-30T03:22:36;10.20;99.90
13806;DHT22;6974;53.606;9.872;2022-09-30T03:25:16;10.20;99.90
13806;DHT22;6974;53.606;9.872;2022-09-30T03:27:56;10.20;99.90
13806;DHT22;6974;53.606;9.872;2022-09-30T03:30:27;10.20;99.90
13806;DHT22;6974;53.606;9.872;2022-09-30T03:33:08;10.20;99.90
13806;DHT22;6974;53.606;9.872;2022-09-30T03:35:44;10.30;99.90
13806;DHT22;6974;53.606;9.872;2022-09-30T03:38:23;10.30;99.90
13806;DHT22;6974;53.606;9.872;2022-09-30T03:40:58;10.40;99.90
13806;DHT22;6974;53.606;9.872;2022-09-30T03:43:33;10.40;99.90
13806;DHT22;6974;53.606;9.872;2022-09-30T03:46:08;10.40;99.90
13806;DHT22;6974;53.606;9.872;2022-09-30T03:48:40;10.50;99.90
13806;DHT22;6974;53.606;9.872;2022-09-30T03:51:10;10.50;99.90
13806;DHT22;6974;53.606;9.872;2022-09-30T03:53:38;10.50;99.90
13806;DHT22;6974;53.606;9.872;2022-09-30T03:56:06;10.50;99.90
13806;DHT22;6974;53.606;9.872;2022-09-30T03:58:39;10.50;99.90
13806;DHT22;6974;53.606;9.872;2022-09-30T04:01:07;10.60;99.90
13806;DHT22;6974;53.606;9.872;2022-09-30T04:03:34;10.50;99.90
13806;DHT22;6974;53.606;9.872;2022-09-30T04:06:01;10.50;99.90
13806;DHT22;6974;53.606;9.872;2022-09-30T04:08:30;10.50;99.90
13806;DHT22;6974;53.606;9.872;2022-09-30T04:10:57;10.50;99.90
13806;DHT22;6974;53.606;9.872;2022-09-30T04:13:24;10.50;99.90
13806;DHT22;6974;53.606;9.872;2022-09-30T04:15:54;10.50;99.90
13806;DHT22;6974;53.606;9.872;2022-09-30T04:18:22;10.50;99.90
13806;DHT22;6974;53.606;9.872;2022-09-30T04:20:49;10.40;99.90
13806;DHT22;6974;53.606;9.872;2022-09-30T04:23:16;10.40;99.90
13806;DHT22;6974;53.606;9.872;2022-09-30T04:25:52;10.40;99.90
13806;DHT22;6974;53.606;9.872;2022-09-30T04:28:21;10.40;99.90
13806;DHT22;6974;53.606;9.872;2022-09-30T04:30:49;10.40;99.90
13806;DHT22;6974;53.606;9.872;2022-09-30T04:33:16;10.50;99.90
13806;DHT22;6974;53.606;9.872;2022-09-30T04:35:43;10.40;99.90
13806;DHT22;6974;53.606;9.872;2022-09-30T04:38:11;10.50;99.90
13806;DHT22;6974;53.606;9.872;2022-09-30T04:40:40;10.60;99.90
13806;DHT22;6974;53.606;9.872;2022-09-30T04:43:11;10.60;99.90
13806;DHT22;6974;53.606;9.872;2022-09-30T04:45:42;10.60;99.90
13806;DHT22;6974;53.606;9.872;2022-09-30T04:48:10;10.60;99.90
13806;DHT22;6974;53.606;9.872;2022-09-30T04:50:38;10.60;99.90
13806;DHT22;6974;53.606;9.872;2022-09-30T04:53:05;10.60;99.90
13806;DHT22;6974;53.606;9.872;2022-09-30T04:55:33;10.60;99.90
13806;DHT22;6974;53.606;9.872;2022-09-30T04:58:01;10.70;99.90
13806;DHT22;6974;53.606;9.872;2022-09-30T05:00:30;10.70;99.90
13806;DHT22;6974;53.606;9.872;2022-09-30T05:02:58;10.70;99.90
13806;DHT22;6974;53.606;9.872;2022-09-30T05:05:26;10.70;99.90
13806;DHT22;6974;53.606;9.872;2022-09-30T05:07:58;10.70;99.90
13806;DHT22;6974;53.606;9.872;2022-09-30T05:10:26;10.70;99.90
13806;DHT22;6974;53.606;9.872;2022-09-30T05:12:55;10.70;99.90
13806;DHT22;6974;53.606;9.872;2022-09-30T05:15:22;10.60;99.90
13806;DHT22;6974;53.606;9.872;2022-09-30T05:17:51;10.70;99.90
13806;DHT22;6974;53.606;9.872;2022-09-30T05:20:19;10.70;99.90
13806;DHT22;6974;53.606;9.872;2022-09-30T05:22:46;10.60;99.90
13806;DHT22;6974;53.606;9.872;2022-09-30T05:25:13;10.60;99.90
13806;DHT22;6974;53.606;9.872;2022-09-30T05:27:42;10.60;99.90
13806;DHT22;6974;53.606;9.872;2022-09-30T05:30:10;10.60;99.90
13806;DHT22;6974;53.606;9.872;2022-09-30T05:32:37;10.60;99.90
13806;DHT22;6974;53.606;9.872;2022-09-30T05:35:07;10.60;99.90
13806;DHT22;6974;53.606;9.872;2022-09-30T05:37:35;10.50;99.90
13806;DHT22;6974;53.606;9.872;2022-09-30T05:40:04;10.50;99.90
13806;DHT22;6974;53.606;9.872;2022-09-30T05:42:32;10.50;99.90
13806;DHT22;6974;53.606;9.872;2022-09-30T05:45:00;10.50;99.90
13806;DHT22;6974;53.606;9.872;2022-09-30T05:47:28;10.50;99.90
13806;DHT22;6974;53.606;9.872;2022-09-30T05:49:56;10.50;99.90
13806;DHT22;6974;53.606;9.872;2022-09-30T05:52:27;10.50;99.90
13806;DHT22;6974;53.606;9.872;2022-09-30T05:54:55;10.50;99.90
13806;DHT22;6974;53.606;9.872;2022-09-30T05:57:26;10.50;99.90
13806;DHT22;6974;53.606;9.872;2022-09-30T05:59:53;10.50;99.90
13806;DHT22;6974;53.606;9.872;2022-09-30T06:02:22;10.50;99.90
13806;DHT22;6974;53.606;9.872;2022-09-30T06:04:50;10.40;99.90
13806;DHT22;6974;53.606;9.872;2022-09-30T06:07:18;10.40;99.90
13806;DHT22;6974;53.606;9.872;2022-09-30T06:09:47;10.40;99.90
13806;DHT22;6974;53.606;9.872;2022-09-30T06:12:14;10.40;99.90
13806;DHT22;6974;53.606;9.872;2022-09-30T06:14:41;10.40;99.90
13806;DHT22;6974;53.606;9.872;2022-09-30T06:17:08;10.50;99.90
13806;DHT22;6974;53.606;9.872;2022-09-30T06:19:36;10.50;99.90
13806;DHT22;6974;53.606;9.872;2022-09-30T06:22:04;10.50;99.90
13806;DHT22;6974;53.606;9.872;2022-09-30T06:24:31;10.50;99.90
13806;DHT22;6974;53.606;9.872;2022-09-30T06:26:59;10.60;99.90
13806;DHT22;6974;53.606;9.872;2022-09-30T06:29:27;10.60;99.90
13806;DHT22;6974;53.606;9.872;2022-09-30T06:32:01;10.60;99.90
13806;DHT22;6974;53.606;9.872;2022-09-30T06:34:28;10.60;99.90
13806;DHT22;6974;53.606;9.872;2022-09-30T06:36:55;10.60;99.90
13806;DHT22;6974;53.606;9.872;2022-09-30T06:39:22;10.60;99.90
13806;DHT22;6974;53.606;9.872;2022-09-30T06:41:52;10.70;99.90
13806;DHT22;6974;53.606;9.872;2022-09-30T06:44:22;10.70;99.90
13806;DHT22;6974;53.606;9.872;2022-09-30T06:46:50;10.70;99.90
13806;DHT22;6974;53.606;9.872;2022-09-30T06:49:17;10.70;99.90
13806;DHT22;6974;53.606;9.872;2022-09-30T06:51:44;10.80;99.90
13806;DHT22;6974;53.606;9.872;2022-09-30T06:54:12;10.80;99.90
13806;DHT22;6974;53.606;9.872;2022-09-30T06:56:39;10.80;99.90
13806;DHT22;6974;53.606;9.872;2022-09-30T06:59:06;10.80;99.90
13806;DHT22;6974;53.606;9.872;2022-09-30T07:01:34;10.80;99.90
13806;DHT22;6974;53.606;9.872;2022-09-30T07:04:01;10.80;99.90
13806;DHT22;6974;53.606;9.872;2022-09-30T07:06:33;10.90;99.90
13806;DHT22;6974;53.606;9.872;2022-09-30T07:09:00;10.90;99.90
13806;DHT22;6974;53.606;9.872;2022-09-30T07:11:27;10.90;99.90
13806;DHT22;6974;53.606;9.872;2022-09-30T07:13:54;11.00;99.90
13806;DHT22;6974;53.606;9.872;2022-09-30T07:16:22;11.00;99.90
13806;DHT22;6974;53.606;9.872;2022-09-30T07:18:51;11.00;99.90
13806;DHT22;6974;53.606;9.872;2022-09-30T07:21:18;11.10;99.90
13806;DHT22;6974;53.606;9.872;2022-09-30T07:23:45;11.20;99.90
13806;DHT22;6974;53.606;9.872;2022-09-30T07:26:13;11.10;99.90
13806;DHT22;6974;53.606;9.872;2022-09-30T07:28:40;11.20;99.90
13806;DHT22;6974;53.606;9.872;2022-09-30T07:31:10;11.20;99.90
13806;DHT22;6974;53.606;9.872;2022-09-30T07:33:37;11.20;99.90
13806;DHT22;6974;53.606;9.872;2022-09-30T07:36:07;11.20;99.90
13806;DHT22;6974;53.606;9.872;2022-09-30T07:38:35;11.30;99.90
13806;DHT22;6974;53.606;9.872;2022-09-30T07:41:07;11.40;99.90
13806;DHT22;6974;53.606;9.872;2022-09-30T07:43:36;11.50;99.90
13806;DHT22;6974;53.606;9.872;2022-09-30T07:46:06;11.50;99.90
13806;DHT22;6974;53.606;9.872;2022-09-30T07:48:33;11.50;99.90
13806;DHT22;6974;53.606;9.872;2022-09-30T07:51:15;11.60;99.90
13806;DHT22;6974;53.606;9.872;2022-09-30T07:53:44;11.60;99.90
13806;DHT22;6974;53.606;9.872;2022-09-30T07:56:12;11.60;99.90
13806;DHT22;6974;53.606;9.872;2022-09-30T07:58:39;11.60;99.90
13806;DHT22;6974;53.606;9.872;2022-09-30T08:01:06;11.60;99.90
13806;DHT22;6974;53.606;9.872;2022-09-30T08:03:34;11.70;99.90
13806;DHT22;6974;53.606;9.872;2022-09-30T08:06:04;11.80;99.90
13806;DHT22;6974;53.606;9.872;2022-09-30T08:08:33;11.70;99.90
13806;DHT22;6974;53.606;9.872;2022-09-30T08:11:00;11.80;99.90
13806;DHT22;6974;53.606;9.872;2022-09-30T08:13:27;11.80;99.90
13806;DHT22;6974;53.606;9.872;2022-09-30T08:15:54;11.80;99.90
13806;DHT22;6974;53.606;9.872;2022-09-30T08:18:21;11.80;99.90
13806;DHT22;6974;53.606;9.872;2022-09-30T08:20:47;11.90;99.90
13806;DHT22;6974;53.606;9.872;2022-09-30T08:23:14;11.90;99.90
13806;DHT22;6974;53.606;9.872;2022-09-30T08:25:43;12.00;99.90
13806;DHT22;6974;53.606;9.872;2022-09-30T08:28:09;12.00;99.90
13806;DHT22;6974;53.606;9.872;2022-09-30T08:30:37;12.10;99.90
13806;DHT22;6974;53.606;9.872;2022-09-30T08:33:04;12.20;99.90
13806;DHT22;6974;53.606;9.872;2022-09-30T08:35:33;12.30;99.90
13806;DHT22;6974;53.606;9.872;2022-09-30T08:38:00;12.30;99.90
13806;DHT22;6974;53.606;9.872;2022-09-30T08:40:29;12.40;99.90
13806;DHT22;6974;53.606;9.872;2022-09-30T08:43:17;12.40;99.90
13806;DHT22;6974;53.606;9.872;2022-09-30T08:45:57;12.40;99.90
13806;DHT22;6974;53.606;9.872;2022-09-30T08:48:39;12.50;99.90
13806;DHT22;6974;53.606;9.872;2022-09-30T08:51:22;12.50;99.90
13806;DHT22;6974;53.606;9.872;2022-09-30T08:53:54;12.60;99.90
13806;DHT22;6974;53.606;9.872;2022-09-30T08:56:23;12.60;99.90
13806;DHT22;6974;53.606;9.872;2022-09-30T08:58:55;12.60;99.90
13806;DHT22;6974;53.606;9.872;2022-09-30T09:01:28;12.60;99.90
13806;DHT22;6974;53.606;9.872;2022-09-30T09:03:57;12.70;99.90
13806;DHT22;6974;53.606;9.872;2022-09-30T09:06:28;12.70;99.90
13806;DHT22;6974;53.606;9.872;2022-09-30T09:09:18;12.70;99.90
13806;DHT22;6974;53.606;9.872;2022-09-30T09:12:00;12.80;99.90
13806;DHT22;6974;53.606;9.872;2022-09-30T09:14:38;12.80;99.90
13806;DHT22;6974;53.606;9.872;2022-09-30T09:17:17;13.00;99.90
13806;DHT22;6974;53.606;9.872;2022-09-30T09:19:55;13.00;99.90
13806;DHT22;6974;53.606;9.872;2022-09-30T09:22:24;13.10;99.90
13806;DHT22;6974;53.606;9.872;2022-09-30T09:24:51;13.10;99.90
13806;DHT22;6974;53.606;9.872;2022-09-30T09:27:24;13.20;99.90
13806;DHT22;6974;53.606;9.872;2022-09-30T09:30:00;13.20;99.90
13806;DHT22;6974;53.606;9.872;2022-09-30T09:32:29;13.30;99.90
13806;DHT22;6974;53.606;9.872;2022-09-30T09:34:58;13.40;99.90
13806;DHT22;6974;53.606;9.872;2022-09-30T09:37:33;13.40;99.90
13806;DHT22;6974;53.606;9.872;2022-09-30T09:40:25;13.50;99.90
13806;DHT22;6974;53.606;9.872;2022-09-30T09:43:08;13.70;99.90
13806;DHT22;6974;53.606;9.872;2022-09-30T09:45:42;13.80;99.90
13806;DHT22;6974;53.606;9.872;2022-09-30T09:48:14;13.90;99.90
13806;DHT22;6974;53.606;9.872;2022-09-30T09:50:48;13.90;99.90
13806;DHT22;6974;53.606;9.872;2022-09-30T09:56:14;13.90;99.90
13806;DHT22;6974;53.606;9.872;2022-09-30T09:59:06;13.90;99.90
13806;DHT22;6974;53.606;9.872;2022-09-30T10:01:37;14.00;99.90
13806;DHT22;6974;53.606;9.872;2022-09-30T10:04:16;13.90;99.90
13806;DHT22;6974;53.606;9.872;2022-09-30T10:06:54;13.90;99.90
13806;DHT22;6974;53.606;9.872;2022-09-30T10:09:30;14.00;99.90
13806;DHT22;6974;53.606;9.872;2022-09-30T10:12:27;14.00;99.90
13806;DHT22;6974;53.606;9.872;2022-09-30T10:14:59;14.00;99.90
13806;DHT22;6974;53.606;9.872;2022-09-30T10:17:30;14.10;99.90
13806;DHT22;6974;53.606;9.872;2022-09-30T10:20:03;14.20;99.90
13806;DHT22;6974;53.606;9.872;2022-09-30T10:22:32;14.20;99.90
13806;DHT22;6974;53.606;9.872;2022-09-30T10:25:21;14.20;99.90
13806;DHT22;6974;53.606;9.872;2022-09-30T10:27:51;14.30;99.90
13806;DHT22;6974;53.606;9.872;2022-09-30T10:30:37;14.40;99.90
13806;DHT22;6974;53.606;9.872;2022-09-30T10:33:12;14.40;99.90
13806;DHT22;6974;53.606;9.872;2022-09-30T10:35:51;14.40;99.90
13806;DHT22;6974;53.606;9.872;2022-09-30T10:38:18;14.50;99.90
13806;DHT22;6974;53.606;9.872;2022-09-30T10:40:48;14.60;99.90
13806;DHT22;6974;53.606;9.872;2022-09-30T10:43:21;14.70;99.90
13806;DHT22;6974;53.606;9.872;2022-09-30T10:45:49;14.70;99.90
13806;DHT22;6974;53.606;9.872;2022-09-30T10:48:21;14.80;99.90
13806;DHT22;6974;53.606;9.872;2022-09-30T10:50:49;14.80;99.90
13806;DHT22;6974;53.606;9.872;2022-09-30T10:53:20;15.00;99.90
13806;DHT22;6974;53.606;9.872;2022-09-30T10:55:48;15.10;99.90
13806;DHT22;6974;53.606;9.872;2022-09-30T10:58:35;15.10;99.90
13806;DHT22;6974;53.606;9.872;2022-09-30T11:01:13;15.00;99.90
13806;DHT22;6974;53.606;9.872;2022-09-30T11:03:51;15.00;99.90
13806;DHT22;6974;53.606;9.872;2022-09-30T11:06:21;15.00;99.90
13806;DHT22;6974;53.606;9.872;2022-09-30T11:08:54;15.00;99.90
13806;DHT22;6974;53.606;9.872;2022-09-30T11:11:26;15.00;99.90
13806;DHT22;6974;53.606;9.872;2022-09-30T11:13:56;15.00;99.90
13806;DHT22;6974;53.606;9.872;2022-09-30T11:16:29;14.90;99.90
13806;DHT22;6974;53.606;9.872;2022-09-30T11:19:03;14.90;99.90
13806;DHT22;6974;53.606;9.872;2022-09-30T11:21:36;14.90;99.90
13806;DHT22;6974;53.606;9.872;2022-09-30T11:24:19;15.00;99.90
13806;DHT22;6974;53.606;9.872;2022-09-30T11:26:54;15.00;99.90
13806;DHT22;6974;53.606;9.872;2022-09-30T11:29:42;14.90;99.90
13806;DHT22;6974;53.606;9.872;2022-09-30T11:32:22;15.00;99.90
13806;DHT22;6974;53.606;9.872;2022-09-30T11:34:58;15.10;99.90
13806;DHT22;6974;53.606;9.872;2022-09-30T11:37:39;15.20;99.90
13806;DHT22;6974;53.606;9.872;2022-09-30T11:40:28;15.10;99.90
13806;DHT22;6974;53.606;9.872;2022-09-30T11:43:02;15.20;99.90
13806;DHT22;6974;53.606;9.872;2022-09-30T11:45:40;15.20;99.90
13806;DHT22;6974;53.606;9.872;2022-09-30T11:48:34;15.20;99.90
13806;DHT22;6974;53.606;9.872;2022-09-30T11:51:12;15.20;99.90
13806;DHT22;6974;53.606;9.872;2022-09-30T11:53:47;15.10;99.90
13806;DHT22;6974;53.606;9.872;2022-09-30T11:56:26;15.10;99.90
13806;DHT22;6974;53.606;9.872;2022-09-30T11:59:03;15.10;99.90
13806;DHT22;6974;53.606;9.872;2022-09-30T12:01:35;15.00;99.90
13806;DHT22;6974;53.606;9.872;2022-09-30T12:04:06;15.10;99.90
13806;DHT22;6974;53.606;9.872;2022-09-30T12:06:39;15.00;99.90
13806;DHT22;6974;53.606;9.872;2022-09-30T12:09:15;15.00;99.90
13806;DHT22;6974;53.606;9.872;2022-09-30T12:11:49;15.00;99.90
13806;DHT22;6974;53.606;9.872;2022-09-30T12:14:22;15.10;99.90
13806;DHT22;6974;53.606;9.872;2022-09-30T12:16:50;15.10;99.90
13806;DHT22;6974;53.606;9.872;2022-09-30T12:19:21;15.30;99.90
13806;DHT22;6974;53.606;9.872;2022-09-30T12:21:55;15.30;99.90
13806;DHT22;6974;53.606;9.872;2022-09-30T12:24:31;15.30;99.90
13806;DHT22;6974;53.606;9.872;2022-09-30T12:27:02;15.30;99.90
13806;DHT22;6974;53.606;9.872;2022-09-30T12:29:33;15.40;99.90
13806;DHT22;6974;53.606;9.872;2022-09-30T12:42:13;15.40;99.90
13806;DHT22;6974;53.606;9.872;2022-09-30T12:45:03;15.40;99.90
13806;DHT22;6974;53.606;9.872;2022-09-30T12:47:37;15.50;99.90
13806;DHT22;6974;53.606;9.872;2022-09-30T12:50:13;15.50;99.90
13806;DHT22;6974;53.606;9.872;2022-09-30T12:52:41;15.60;99.90
13806;DHT22;6974;53.606;9.872;2022-09-30T12:55:19;15.60;99.90
13806;DHT22;6974;53.606;9.872;2022-09-30T12:57:49;15.60;99.90
13806;DHT22;6974;53.606;9.872;2022-09-30T13:00:18;15.60;99.90
13806;DHT22;6974;53.606;9.872;2022-09-30T13:02:47;15.60;99.90
13806;DHT22;6974;53.606;9.872;2022-09-30T13:08:30;15.60;99.90
13806;DHT22;6974;53.606;9.872;2022-09-30T13:10:58;15.60;99.90
13806;DHT22;6974;53.606;9.872;2022-09-30T13:13:29;15.60;99.90
13806;DHT22;6974;53.606;9.872;2022-09-30T13:15:59;15.60;99.90
13806;DHT22;6974;53.606;9.872;2022-09-30T13:18:59;15.60;99.90
13806;DHT22;6974;53.606;9.872;2022-09-30T13:21:26;15.60;99.90
13806;DHT22;6974;53.606;9.872;2022-09-30T13:23:55;15.60;99.90
13806;DHT22;6974;53.606;9.872;2022-09-30T13:26:38;15.50;99.90
13806;DHT22;6974;53.606;9.872;2022-09-30T13:29:36;15.50;99.90
13806;DHT22;6974;53.606;9.872;2022-09-30T13:32:05;15.50;99.90
13806;DHT22;6974;53.606;9.872;2022-09-30T13:34:47;15.50;99.90
13806;DHT22;6974;53.606;9.872;2022-09-30T13:37:42;15.50;99.90
13806;DHT22;6974;53.606;9.872;2022-09-30T13:40:20;15.60;99.90
13806;DHT22;6974;53.606;9.872;2022-09-30T13:42:52;15.60;99.90
13806;DHT22;6974;53.606;9.872;2022-09-30T13:45:28;15.70;99.90
13806;DHT22;6974;53.606;9.872;2022-09-30T13:48:05;15.70;99.90
13806;DHT22;6974;53.606;9.872;2022-09-30T13:50:38;15.70;99.90
13806;DHT22;6974;53.606;9.872;2022-09-30T13:53:20;15.70;99.90
13806;DHT22;6974;53.606;9.872;2022-09-30T13:55:51;15.60;99.90
13806;DHT22;6974;53.606;9.872;2022-09-30T14:01:37;15.70;99.90
13806;DHT22;6974;53.606;9.872;2022-09-30T14:04:30;15.60;99.90
13806;DHT22;6974;53.606;9.872;2022-09-30T14:07:06;15.70;99.90
13806;DHT22;6974;53.606;9.872;2022-09-30T14:09:51;15.80;99.90
13806;DHT22;6974;53.606;9.872;2022-09-30T14:12:35;15.90;99.90
13806;DHT22;6974;53.606;9.872;2022-09-30T14:15:22;15.90;99.90
13806;DHT22;6974;53.606;9.872;2022-09-30T14:18:10;15.90;99.90
13806;DHT22;6974;53.606;9.872;2022-09-30T14:23:55;15.90;99.90
13806;DHT22;6974;53.606;9.872;2022-09-30T14:26:37;16.00;99.90
13806;DHT22;6974;53.606;9.872;2022-09-30T14:29:12;15.90;99.90
13806;DHT22;6974;53.606;9.872;2022-09-30T14:31:43;15.80;99.90
13806;DHT22;6974;53.606;9.872;2022-09-30T14:34:13;15.80;99.90
13806;DHT22;6974;53.606;9.872;2022-09-30T14:36:42;15.70;99.90
13806;DHT22;6974;53.606;9.872;2022-09-30T14:39:14;15.70;99.90
13806;DHT22;6974;53.606;9.872;2022-09-30T14:41:48;15.70;99.90
13806;DHT22;6974;53.606;9.872;2022-09-30T14:44:16;15.60;99.90
13806;DHT22;6974;53.606;9.872;2022-09-30T14:46:46;15.60;99.90
13806;DHT22;6974;53.606;9.872;2022-09-30T14:49:18;15.60;99.90
13806;DHT22;6974;53.606;9.872;2022-09-30T14:51:47;15.70;99.90
13806;DHT22;6974;53.606;9.872;2022-09-30T14:54:17;15.80;99.90
13806;DHT22;6974;53.606;9.872;2022-09-30T14:56:45;15.70;99.90
13806;DHT22;6974;53.606;9.872;2022-09-30T14:59:16;15.60;99.90
13806;DHT22;6974;53.606;9.872;2022-09-30T15:01:45;15.60;99.90
13806;DHT22;6974;53.606;9.872;2022-09-30T15:04:16;15.60;99.90
13806;DHT22;6974;53.606;9.872;2022-09-30T15:06:46;15.60;99.90
13806;DHT22;6974;53.606;9.872;2022-09-30T15:09:16;15.60;99.90
13806;DHT22;6974;53.606;9.872;2022-09-30T15:11:44;15.60;99.90
13806;DHT22;6974;53.606;9.872;2022-09-30T15:14:16;15.60;99.90
13806;DHT22;6974;53.606;9.872;2022-09-30T15:16:45;15.60;99.90
13806;DHT22;6974;53.606;9.872;2022-09-30T15:19:18;15.50;99.90
13806;DHT22;6974;53.606;9.872;2022-09-30T15:21:46;15.50;99.90
13806;DHT22;6974;53.606;9.872;2022-09-30T15:24:15;15.50;99.90
13806;DHT22;6974;53.606;9.872;2022-09-30T15:26:43;15.50;99.90
13806;DHT22;6974;53.606;9.872;2022-09-30T15:29:12;15.40;99.90
13806;DHT22;6974;53.606;9.872;2022-09-30T15:31:43;15.50;99.90
13806;DHT22;6974;53.606;9.872;2022-09-30T15:34:16;15.50;99.90
13806;DHT22;6974;53.606;9.872;2022-09-30T15:36:44;15.50;99.90
13806;DHT22;6974;53.606;9.872;2022-09-30T15:39:23;15.40;99.90
13806;DHT22;6974;53.606;9.872;2022-09-30T15:42:11;15.40;99.90
13806;DHT22;6974;53.606;9.872;2022-09-30T15:44:38;15.40;99.90
13806;DHT22;6974;53.606;9.872;2022-09-30T15:47:07;15.40;99.90
13806;DHT22;6974;53.606;9.872;2022-09-30T15:49:46;15.40;99.90
13806;DHT22;6974;53.606;9.872;2022-09-30T15:52:26;15.30;99.90
13806;DHT22;6974;53.606;9.872;2022-09-30T15:54:54;15.30;99.90
13806;DHT22;6974;53.606;9.872;2022-09-30T15:57:42;15.20;99.90
13806;DHT22;6974;53.606;9.872;2022-09-30T16:00:30;15.20;99.90
13806;DHT22;6974;53.606;9.872;2022-09-30T16:03:18;15.20;99.90
13806;DHT22;6974;53.606;9.872;2022-09-30T16:05:47;15.10;99.90
13806;DHT22;6974;53.606;9.872;2022-09-30T16:08:19;15.00;99.90
13806;DHT22;6974;53.606;9.872;2022-09-30T16:10:48;15.00;99.90
13806;DHT22;6974;53.606;9.872;2022-09-30T16:13:18;15.00;99.90
13806;DHT22;6974;53.606;9.872;2022-09-30T16:15:46;15.00;99.90
13806;DHT22;6974;53.606;9.872;2022-09-30T16:18:17;14.90;99.90
13806;DHT22;6974;53.606;9.872;2022-09-30T16:20:57;14.90;99.90
13806;DHT22;6974;53.606;9.872;2022-09-30T16:23:29;14.90;99.90
13806;DHT22;6974;53.606;9.872;2022-09-30T16:26:18;14.90;99.90
13806;DHT22;6974;53.606;9.872;2022-09-30T16:28:48;14.90;99.90
13806;DHT22;6974;53.606;9.872;2022-09-30T16:31:16;14.90;99.90
13806;DHT22;6974;53.606;9.872;2022-09-30T16:33:43;14.80;99.90
13806;DHT22;6974;53.606;9.872;2022-09-30T16:36:12;14.80;99.90
13806;DHT22;6974;53.606;9.872;2022-09-30T16:38:39;14.80;99.90
13806;DHT22;6974;53.606;9.872;2022-09-30T16:41:10;14.70;99.90
13806;DHT22;6974;53.606;9.872;2022-09-30T16:43:38;14.70;99.90
13806;DHT22;6974;53.606;9.872;2022-09-30T16:46:07;14.60;99.90
13806;DHT22;6974;53.606;9.872;2022-09-30T16:48:34;14.60;99.90
13806;DHT22;6974;53.606;9.872;2022-09-30T16:51:04;14.50;99.90
13806;DHT22;6974;53.606;9.872;2022-09-30T16:53:33;14.50;99.90